Time;durP1;ratioP1;P1;durP2;ratioP2;P2;SDS_P1;SDS_P2;PMS_P1;PMS_P2;Temp;Humidity;BMP_temperature;BMP_pressure;BME280_temperature;BME280_humidity;BME280_pressure;Samples;Min_cycle;Max_cycle;Signal;HPM_P1;HPM_P2
2023/01/26 00:00:47;;;;;;;19.67;13.13;;;-1.10;1.00;;;;;;5008404;28;20230;-78
2023/01/26 00:03:13;;;;;;;19.37;12.53;;;-1.10;1.00;;;;;;5010665;28;20215;-79
2023/01/26 00:05:39;;;;;;;20.37;12.53;;;-1.10;1.00;;;;;;5010208;28;20274;-79
2023/01/26 00:08:05;;;;;;;17.50;11.70;;;-1.10;99.90;;;;;;5009523;28;20256;-79
2023/01/26 00:10:31;;;;;;;19.80;13.23;;;-1.30;99.90;;;;;;5010353;28;20199;-78
2023/01/26 00:12:56;;;;;;;19.87;12.47;;;-1.10;99.90;;;;;;5009748;28;21153;-79
2023/01/26 00:15:22;;;;;;;22.37;13.97;;;-1.00;1.00;;;;;;5009023;28;20196;-80
2023/01/26 00:17:50;;;;;;;24.17;14.43;;;-1.10;99.90;;;;;;5009614;28;20218;-78
2023/01/26 00:20:16;;;;;;;23.97;15.30;;;-1.10;99.90;;;;;;5010198;28;20184;-80
2023/01/26 00:22:42;;;;;;;23.30;14.77;;;-1.00;1.00;;;;;;5025976;28;20187;-79
2023/01/26 00:25:08;;;;;;;22.80;14.97;;;-1.10;1.00;;;;;;5009077;28;20199;-78
2023/01/26 00:27:34;;;;;;;22.03;14.50;;;-1.10;99.90;;;;;;5010418;28;20222;-78
2023/01/26 00:29:59;;;;;;;22.23;14.77;;;-1.10;99.90;;;;;;5010862;28;20187;-77
2023/01/26 00:32:25;;;;;;;23.37;14.47;;;-1.10;1.00;;;;;;5011270;28;20215;-78
2023/01/26 00:34:51;;;;;;;20.40;12.77;;;-1.10;1.00;;;;;;5010229;28;20215;-79
2023/01/26 00:37:16;;;;;;;22.63;13.60;;;-1.20;99.90;;;;;;5009987;28;20212;-77
2023/01/26 00:39:42;;;;;;;21.60;14.07;;;-1.20;15.30;;;;;;5010353;28;20183;-79
2023/01/26 00:42:12;;;;;;;20.30;13.17;;;-1.20;99.90;;;;;;5010926;28;20194;-79
2023/01/26 00:44:38;;;;;;;19.27;12.97;;;-1.30;47.10;;;;;;5009808;28;20266;-79
2023/01/26 00:47:06;;;;;;;22.93;14.50;;;-1.30;1.00;;;;;;5009521;28;20683;-79
2023/01/26 00:49:32;;;;;;;21.07;13.23;;;-1.40;1.00;;;;;;5025063;28;20223;-79
2023/01/26 00:51:57;;;;;;;20.80;13.63;;;-1.40;1.00;;;;;;5010923;28;20226;-79
2023/01/26 00:54:23;;;;;;;19.10;11.77;;;-1.40;17.40;;;;;;5009892;28;20194;-78
2023/01/26 00:56:49;;;;;;;20.43;13.20;;;-1.30;1.00;;;;;;5009855;28;20246;-77
2023/01/26 00:59:14;;;;;;;21.40;12.90;;;-1.40;1.00;;;;;;5010261;28;20653;-78
2023/01/26 01:01:40;;;;;;;19.50;12.93;;;-1.40;1.00;;;;;;5008435;28;20709;-78
2023/01/26 01:04:05;;;;;;;21.00;13.67;;;-1.50;1.00;;;;;;5009888;28;20194;-77
2023/01/26 01:06:31;;;;;;;21.57;14.43;;;-1.60;1.00;;;;;;5007970;28;20212;-77
2023/01/26 01:08:56;;;;;;;20.30;13.77;;;-0.90;93.20;;;;;;5009818;28;20188;-78
2023/01/26 01:11:22;;;;;;;18.63;13.03;;;-1.40;99.90;;;;;;5010472;28;20195;-79
2023/01/26 01:13:47;;;;;;;22.17;14.77;;;-1.40;99.90;;;;;;5006535;28;20203;-77
2023/01/26 01:16:15;;;;;;;21.53;13.77;;;-1.40;85.20;;;;;;5009631;28;20607;-81
2023/01/26 01:18:41;;;;;;;20.97;14.17;;;-1.30;56.20;;;;;;5009365;28;20680;-78
2023/01/26 01:21:11;;;;;;;20.33;13.50;;;-1.40;1.00;;;;;;5024434;28;20233;-78
2023/01/26 01:23:38;;;;;;;21.60;14.13;;;-1.40;1.00;;;;;;5008738;28;20195;-80
2023/01/26 01:26:04;;;;;;;18.60;12.93;;;-1.40;1.00;;;;;;5009063;28;20207;-79
2023/01/26 01:28:31;;;;;;;19.67;13.73;;;-1.40;1.00;;;;;;5009680;28;20183;-78
2023/01/26 01:30:56;;;;;;;19.40;13.27;;;-1.30;1.00;;;;;;5009017;28;20552;-79
2023/01/26 01:33:23;;;;;;;20.97;14.27;;;-1.30;1.00;;;;;;5008507;28;20207;-78
2023/01/26 01:35:56;;;;;;;19.97;12.93;;;-1.40;1.00;;;;;;5008743;28;20191;-78
2023/01/26 01:38:21;;;;;;;19.80;12.40;;;-1.30;1.00;;;;;;5008912;28;20184;-79
2023/01/26 01:40:47;;;;;;;17.03;12.43;;;-1.40;1.00;;;;;;5009256;28;20326;-79
2023/01/26 01:43:12;;;;;;;18.73;13.53;;;-1.40;1.00;;;;;;5009414;28;20693;-78
2023/01/26 01:45:43;;;;;;;18.70;12.87;;;-1.40;1.00;;;;;;5007424;28;20769;-77
2023/01/26 01:48:30;;;;;;;18.73;13.10;;;-1.40;1.00;;;;;;5008342;28;20682;-79
2023/01/26 01:51:01;;;;;;;18.23;12.97;;;-1.40;1.00;;;;;;5008947;28;20217;-79
2023/01/26 01:53:32;;;;;;;18.10;12.93;;;-1.40;1.00;;;;;;5008775;28;20199;-78
2023/01/26 01:56:01;;;;;;;17.87;13.07;;;-1.50;1.00;;;;;;5008405;28;20176;-79
2023/01/26 01:58:30;;;;;;;18.73;13.10;;;-1.50;99.90;;;;;;5007845;28;20179;-80
2023/01/26 02:00:57;;;;;;;17.43;12.70;;;-1.50;1.00;;;;;;5006733;28;20183;-80
2023/01/26 02:03:25;;;;;;;18.63;12.73;;;-1.60;1.00;;;;;;5008190;28;20645;-78
2023/01/26 02:06:12;;;;;;;19.63;16.67;;;-1.60;1.00;;;;;;5006450;28;20476;-78
2023/01/26 02:08:50;;;;;;;20.00;13.57;;;-1.50;1.00;;;;;;5008016;28;20188;-78
2023/01/26 02:11:39;;;;;;;20.00;13.43;;;-1.60;1.00;;;;;;5008047;28;20187;-78
2023/01/26 02:14:08;;;;;;;18.53;12.67;;;-1.60;1.00;;;;;;5007688;28;20203;-79
2023/01/26 02:16:34;;;;;;;21.50;14.20;;;-1.70;1.00;;;;;;5006932;28;20204;-78
2023/01/26 02:19:00;;;;;;;20.97;13.83;;;-1.60;1.00;;;;;;5007494;28;20180;-78
2023/01/26 02:21:26;;;;;;;18.97;13.23;;;-1.60;1.00;;;;;;5008114;28;20192;-79
2023/01/26 02:24:00;;;;;;;19.20;13.57;;;-1.70;1.00;;;;;;5007118;28;20645;-80
2023/01/26 02:26:28;;;;;;;21.37;14.47;;;-1.70;1.00;;;;;;5007413;28;20211;-80
2023/01/26 02:28:54;;;;;;;23.87;15.10;;;-1.80;99.90;;;;;;5007419;28;20187;-79
2023/01/26 02:31:22;;;;;;;21.60;15.10;;;-1.80;1.00;;;;;;5008354;28;20221;-79
2023/01/26 02:33:47;;;;;;;23.10;15.40;;;-1.70;1.00;;;;;;5007115;28;20199;-79
2023/01/26 02:36:19;;;;;;;24.23;15.43;;;-1.70;1.00;;;;;;5006424;28;20203;-78
2023/01/26 02:39:10;;;;;;;20.50;13.97;;;-1.70;1.00;;;;;;5007100;28;20187;-78
2023/01/26 02:44:21;;;;;;;21.93;14.23;;;-1.70;1.00;;;;;;5007727;28;20191;-79
2023/01/26 02:46:46;;;;;;;24.10;15.43;;;-1.70;1.00;;;;;;5006436;28;20207;-80
2023/01/26 02:51:56;;;;;;;25.60;14.90;;;-1.90;99.90;;;;;;5007542;28;20314;-80
2023/01/26 02:57:06;;;;;;;31.27;16.63;;;-2.00;99.90;;;;;;5006744;28;20210;-80
2023/01/26 02:59:31;;;;;;;31.73;17.27;;;-1.90;1.00;;;;;;5004814;28;20187;-79
2023/01/26 03:01:57;;;;;;;29.00;16.93;;;-1.90;1.00;;;;;;5007231;28;20183;-80
2023/01/26 03:04:23;;;;;;;32.00;18.20;;;-1.90;1.00;;;;;;5006607;28;20310;-78
2023/01/26 03:06:49;;;;;;;30.63;17.63;;;-1.90;1.00;;;;;;5006633;28;20218;-78
2023/01/26 03:09:14;;;;;;;30.53;18.23;;;-1.90;1.00;;;;;;5010827;28;20650;-79
2023/01/26 03:11:43;;;;;;;33.37;19.40;;;-1.90;1.00;;;;;;5013478;28;20206;-77
2023/01/26 03:14:13;;;;;;;34.63;17.90;;;-1.90;1.00;;;;;;5012341;28;20199;-78
2023/01/26 03:16:39;;;;;;;34.30;19.17;;;-2.00;1.00;;;;;;5027927;28;20211;-78
2023/01/26 03:27:26;;;;;;;35.73;19.03;;;-1.90;1.00;;;;;;4981419;28;20218;-80
2023/01/26 03:29:53;;;;;;;32.93;18.23;;;-1.80;1.00;;;;;;5027523;28;20183;-80
2023/01/26 03:32:19;;;;;;;33.57;18.80;;;-1.90;1.00;;;;;;5012894;28;20215;-78
2023/01/26 03:34:44;;;;;;;31.23;18.50;;;-1.80;1.00;;;;;;5012239;28;20233;-80
2023/01/26 03:37:10;;;;;;;32.50;19.07;;;-1.80;1.00;;;;;;5012094;28;20302;-80
2023/01/26 03:56:18;;;;;;;31.57;18.03;;;-1.90;1.00;;;;;;5012418;28;20317;-80
2023/01/26 03:58:49;;;;;;;34.47;17.27;;;-1.90;1.00;;;;;;5011053;28;20198;-80
2023/01/26 04:01:18;;;;;;;30.60;17.17;;;-1.90;1.00;;;;;;5011434;28;20182;-80
2023/01/26 04:09:18;;;;;;;33.87;19.73;;;-1.80;1.00;;;;;;5013616;28;20233;-80
2023/01/26 04:11:44;;;;;;;31.67;19.47;;;-1.10;1.00;;;;;;5011994;28;20270;-79
2023/01/26 04:22:26;;;;;;;31.27;18.37;;;-1.90;99.90;;;;;;5009724;28;20558;-80
2023/01/26 04:24:52;;;;;;;32.07;19.10;;;-1.90;99.90;;;;;;5006531;28;20204;-80
2023/01/26 04:27:17;;;;;;;34.30;20.13;;;-1.80;99.90;;;;;;5008380;28;20214;-80
2023/01/26 04:29:43;;;;;;;32.97;19.17;;;-1.80;99.90;;;;;;5007491;28;20195;-80
2023/01/26 04:32:08;;;;;;;29.73;18.20;;;-1.80;99.90;;;;;;5007160;28;20211;-77
2023/01/26 04:34:34;;;;;;;29.10;17.17;;;-1.80;99.90;;;;;;5008453;28;20195;-80
2023/01/26 04:36:59;;;;;;;30.90;18.10;;;-1.90;99.90;;;;;;5007956;28;20218;-79
2023/01/26 04:39:25;;;;;;;29.60;16.63;;;-1.90;99.90;;;;;;5008951;28;20266;-79
2023/01/26 04:41:50;;;;;;;29.60;17.07;;;-1.80;99.90;;;;;;5008014;28;20884;-79
2023/01/26 04:44:16;;;;;;;30.37;17.13;;;-1.80;99.90;;;;;;5008650;28;20194;-80
2023/01/26 04:46:42;;;;;;;35.43;18.70;;;-1.80;99.90;;;;;;5006280;28;20239;-79
2023/01/26 04:49:07;;;;;;;30.20;18.30;;;-1.80;99.90;;;;;;5008493;28;20199;-81
2023/01/26 04:51:33;;;;;;;32.67;17.67;;;-1.80;99.90;;;;;;5010182;28;20304;-80
2023/01/26 04:53:59;;;;;;;32.27;17.63;;;-1.80;99.90;;;;;;5008716;28;20694;-79
2023/01/26 04:56:27;;;;;;;32.67;18.13;;;-1.80;99.90;;;;;;5008122;28;20246;-80
2023/01/26 04:58:54;;;;;;;36.53;19.50;;;-1.90;99.90;;;;;;5006477;28;20388;-78
2023/01/26 05:01:20;;;;;;;34.13;18.93;;;-1.90;99.90;;;;;;5007843;28;20195;-80
2023/01/26 05:03:46;;;;;;;32.33;18.40;;;-1.80;99.90;;;;;;5008005;28;20192;-80
2023/01/26 05:06:12;;;;;;;33.83;19.30;;;-1.90;99.90;;;;;;5007226;28;20219;-78
2023/01/26 05:08:38;;;;;;;28.10;17.23;;;-1.90;99.90;;;;;;5008692;28;20191;-79
2023/01/26 05:11:04;;;;;;;32.40;17.80;;;-2.00;99.90;;;;;;5007776;28;20190;-80
2023/01/26 05:13:30;;;;;;;32.30;16.13;;;-1.90;99.90;;;;;;5008683;28;20677;-80
2023/01/26 05:15:55;;;;;;;27.67;15.67;;;-1.90;99.90;;;;;;5008478;28;20175;-78
2023/01/26 05:18:21;;;;;;;30.20;17.60;;;-1.90;99.90;;;;;;5008562;28;20187;-79
2023/01/26 05:20:47;;;;;;;33.80;17.87;;;-1.90;99.90;;;;;;5008354;28;20191;-78
2023/01/26 05:23:12;;;;;;;33.87;17.50;;;-1.80;99.90;;;;;;5008015;28;20190;-80
2023/01/26 05:25:38;;;;;;;37.57;17.97;;;-1.80;99.90;;;;;;5007717;28;20191;-80
2023/01/26 05:28:04;;;;;;;32.17;16.70;;;-1.80;99.90;;;;;;5008698;28;20204;-79
2023/01/26 05:30:30;;;;;;;32.07;16.50;;;-1.80;99.90;;;;;;5008660;28;20195;-80
2023/01/26 05:33:03;;;;;;;32.17;17.13;;;-1.80;99.90;;;;;;5007732;28;20215;-80
2023/01/26 05:35:29;;;;;;;35.47;17.57;;;-1.30;99.90;;;;;;5008047;28;20717;-80
2023/01/26 05:37:55;;;;;;;31.33;16.63;;;-1.90;99.90;;;;;;5009210;28;20283;-78
2023/01/26 05:40:21;;;;;;;32.63;17.50;;;-1.80;99.90;;;;;;5009774;28;20184;-79
2023/01/26 05:42:46;;;;;;;33.50;18.00;;;-1.80;1.00;;;;;;5008556;28;20195;-79
2023/01/26 05:45:12;;;;;;;32.33;17.63;;;-1.80;1.00;;;;;;5007989;28;20250;-80
2023/01/26 05:47:38;;;;;;;35.97;18.67;;;-1.80;1.00;;;;;;5023680;28;20728;-81
2023/01/26 05:50:05;;;;;;;30.67;17.07;;;-1.80;1.00;;;;;;5009187;28;20187;-81
2023/01/26 05:52:31;;;;;;;32.17;17.30;;;-1.90;99.90;;;;;;5023361;28;20278;-78
2023/01/26 05:54:56;;;;;;;33.33;16.73;;;-1.90;1.00;;;;;;5006818;28;20617;-80
2023/01/26 05:57:22;;;;;;;33.50;17.60;;;-1.80;1.00;;;;;;5008611;28;20302;-80
2023/01/26 05:59:47;;;;;;;34.80;17.77;;;-1.80;1.00;;;;;;5007807;28;20266;-78
2023/01/26 06:02:13;;;;;;;31.30;17.37;;;-1.80;1.00;;;;;;5007280;28;20187;-78
2023/01/26 06:04:39;;;;;;;33.13;16.77;;;-1.80;99.90;;;;;;5006579;28;20199;-79
2023/01/26 06:07:05;;;;;;;34.00;17.30;;;-1.80;99.90;;;;;;5007633;28;20751;-80
2023/01/26 06:09:30;;;;;;;32.63;17.13;;;-1.80;99.90;;;;;;5008647;28;20553;-80
2023/01/26 06:11:56;;;;;;;33.90;16.70;;;-1.80;99.90;;;;;;5007322;28;20190;-80
2023/01/26 06:14:22;;;;;;;33.53;17.27;;;-1.80;99.90;;;;;;5008158;28;20262;-80
2023/01/26 06:16:48;;;;;;;35.43;17.50;;;-1.80;1.00;;;;;;5007430;28;20208;-78
2023/01/26 06:19:13;;;;;;;32.50;17.23;;;-2.40;99.90;;;;;;5007343;28;20556;-80
2023/01/26 06:21:39;;;;;;;32.63;17.53;;;-1.80;1.00;;;;;;5008512;28;20265;-78
2023/01/26 06:24:05;;;;;;;35.70;16.83;;;-1.80;1.00;;;;;;5008299;28;20284;-79
2023/01/26 06:26:30;;;;;;;36.77;18.77;;;-1.80;1.00;;;;;;5008287;28;20610;-78
2023/01/26 06:28:56;;;;;;;36.10;18.23;;;-1.80;1.00;;;;;;5009095;28;20215;-78
2023/01/26 06:31:28;;;;;;;34.60;17.63;;;-1.80;1.00;;;;;;5007958;28;20188;-80
2023/01/26 06:33:54;;;;;;;39.83;18.90;;;-1.80;1.00;;;;;;5007233;28;20211;-80
2023/01/26 06:36:20;;;;;;;39.03;18.90;;;-1.80;1.00;;;;;;5007626;28;20266;-80
2023/01/26 06:38:47;;;;;;;31.47;17.27;;;-1.80;1.00;;;;;;5007699;28;20191;-78
2023/01/26 06:41:13;;;;;;;35.57;17.60;;;-1.80;1.00;;;;;;5008066;28;20657;-81
2023/01/26 06:43:42;;;;;;;37.93;19.20;;;-1.80;1.00;;;;;;5006993;28;20594;-80
2023/01/26 06:46:08;;;;;;;35.23;18.40;;;-1.80;1.00;;;;;;5008219;28;20234;-80
2023/01/26 06:48:34;;;;;;;34.70;17.50;;;-1.80;1.00;;;;;;5007776;28;20196;-80
2023/01/26 06:51:04;;;;;;;32.30;16.63;;;-1.70;1.00;;;;;;5006662;28;20183;-80
2023/01/26 06:53:38;;;;;;;36.93;17.93;;;-1.70;1.00;;;;;;5024172;28;20214;-81
2023/01/26 06:56:05;;;;;;;39.73;19.47;;;-1.70;1.00;;;;;;5007095;28;20191;-80
2023/01/26 06:58:30;;;;;;;38.63;18.43;;;-1.70;1.00;;;;;;5006586;28;20201;-80
2023/01/26 07:00:56;;;;;;;41.50;20.20;;;-1.70;1.00;;;;;;5006888;28;20761;-80
2023/01/26 07:03:22;;;;;;;39.53;18.97;;;-1.70;1.00;;;;;;5007342;28;20195;-78
2023/01/26 07:05:47;;;;;;;36.17;17.70;;;-1.70;1.00;;;;;;5006826;28;20278;-80
2023/01/26 07:08:13;;;;;;;41.53;19.13;;;-1.70;1.00;;;;;;5007236;28;20191;-79
2023/01/26 07:10:38;;;;;;;38.93;18.90;;;-1.60;1.00;;;;;;5005879;28;20673;-80
2023/01/26 07:13:05;;;;;;;36.33;19.40;;;-1.60;1.00;;;;;;5005987;28;21063;-80
2023/01/26 07:15:31;;;;;;;34.27;18.17;;;-1.60;1.00;;;;;;5006583;28;20757;-79
2023/01/26 07:17:57;;;;;;;38.70;18.50;;;-1.60;1.00;;;;;;5006137;28;20250;-80
2023/01/26 07:20:23;;;;;;;39.47;19.67;;;-1.60;1.00;;;;;;5006344;28;20220;-80
2023/01/26 07:22:49;;;;;;;38.27;18.90;;;-1.70;1.00;;;;;;5006172;28;20183;-79
2023/01/26 07:25:16;;;;;;;42.73;20.27;;;-1.60;27.50;;;;;;5006183;28;20215;-80
2023/01/26 07:27:42;;;;;;;40.57;19.00;;;-1.60;99.90;;;;;;5005610;28;20207;-80
2023/01/26 07:30:09;;;;;;;43.13;19.97;;;-1.60;99.90;;;;;;5005051;28;20187;-80
2023/01/26 07:32:34;;;;;;;43.93;20.10;;;-1.60;99.90;;;;;;5006347;28;20219;-78
2023/01/26 07:35:00;;;;;;;42.63;18.80;;;-1.60;99.90;;;;;;5005289;28;20570;-80
2023/01/26 07:37:29;;;;;;;37.50;17.47;;;-1.50;1.00;;;;;;5005237;28;20207;-79
2023/01/26 07:39:55;;;;;;;41.70;18.87;;;-1.50;1.00;;;;;;5005567;28;20186;-79
2023/01/26 07:42:21;;;;;;;38.80;17.80;;;-1.50;1.00;;;;;;5005011;28;20636;-78
2023/01/26 07:44:47;;;;;;;42.50;18.70;;;-1.50;1.00;;;;;;5006591;28;20213;-78
2023/01/26 07:47:13;;;;;;;43.93;20.03;;;-1.50;1.00;;;;;;5006120;28;20218;-77
2023/01/26 07:49:39;;;;;;;40.47;19.07;;;-1.50;1.00;;;;;;5005147;28;20184;-78
2023/01/26 07:52:05;;;;;;;38.13;18.73;;;-1.50;1.00;;;;;;5006263;28;20172;-79
2023/01/26 07:54:31;;;;;;;37.00;19.33;;;-1.50;1.00;;;;;;5007385;28;20194;-80
2023/01/26 07:56:57;;;;;;;38.13;19.03;;;-1.50;1.00;;;;;;5009214;28;20207;-80
2023/01/26 07:59:23;;;;;;;31.57;15.90;;;-1.40;1.00;;;;;;5008002;28;20270;-81
2023/01/26 08:01:49;;;;;;;35.83;17.73;;;-1.40;1.00;;;;;;5008361;28;20283;-80
2023/01/26 08:04:15;;;;;;;36.83;17.70;;;-1.40;1.00;;;;;;5010747;28;20195;-80
2023/01/26 08:06:41;;;;;;;42.53;17.93;;;-1.30;39.10;;;;;;5009914;28;20216;-79
2023/01/26 08:09:07;;;;;;;45.73;21.20;;;-1.30;1.00;;;;;;5010620;28;20249;-81
2023/01/26 08:11:33;;;;;;;39.53;18.00;;;-1.30;1.00;;;;;;5008766;28;20215;-79
2023/01/26 08:13:59;;;;;;;37.07;16.70;;;-1.40;1.00;;;;;;5010289;28;20652;-79
2023/01/26 08:16:24;;;;;;;36.40;17.27;;;-1.40;1.00;;;;;;5010643;28;20302;-81
2023/01/26 08:18:50;;;;;;;42.10;19.53;;;-1.40;1.00;;;;;;5010156;28;20191;-79
2023/01/26 08:21:17;;;;;;;42.43;18.83;;;-1.40;1.00;;;;;;5010040;28;20187;-79
2023/01/26 08:23:47;;;;;;;39.17;17.23;;;-1.40;47.70;;;;;;5009836;28;20253;-79
2023/01/26 08:26:13;;;;;;;42.57;18.70;;;-1.40;99.90;;;;;;5011151;28;20254;-80
2023/01/26 08:28:39;;;;;;;40.47;18.20;;;-1.40;45.80;;;;;;5010389;28;20191;-80
2023/01/26 08:31:07;;;;;;;37.63;17.43;;;-1.40;1.00;;;;;;5009204;28;20211;-80
2023/01/26 08:33:33;;;;;;;38.47;18.30;;;-1.40;12.80;;;;;;5010431;28;20218;-80
2023/01/26 08:36:07;;;;;;;43.10;16.87;;;-1.40;1.00;;;;;;5010265;28;20218;-80
2023/01/26 08:38:33;;;;;;;42.00;17.77;;;-1.30;1.00;;;;;;5009701;28;20186;-80
2023/01/26 08:41:00;;;;;;;43.77;18.00;;;-1.40;1.00;;;;;;5011007;28;20631;-79
2023/01/26 08:43:26;;;;;;;42.67;17.57;;;-1.40;1.00;;;;;;5010016;28;20187;-79
2023/01/26 08:45:52;;;;;;;42.37;17.43;;;-1.50;1.00;;;;;;5009084;28;20201;-80
2023/01/26 08:48:17;;;;;;;38.40;15.80;;;-1.40;17.30;;;;;;5010266;28;20200;-81
2023/01/26 08:50:44;;;;;;;41.07;16.73;;;-1.40;99.90;;;;;;5010961;28;20175;-80
2023/01/26 08:53:09;;;;;;;36.73;16.83;;;-1.40;97.40;;;;;;5010003;28;20196;-81
2023/01/26 08:55:35;;;;;;;35.17;14.80;;;-1.40;95.90;;;;;;5007742;28;20639;-79
2023/01/26 08:58:02;;;;;;;34.57;15.20;;;-1.40;99.90;;;;;;5008409;28;20628;-80
2023/01/26 09:00:28;;;;;;;37.70;17.37;;;-1.40;99.90;;;;;;5010178;28;20216;-81
2023/01/26 09:03:01;;;;;;;36.53;16.47;;;-1.30;99.90;;;;;;5009406;28;20195;-78
2023/01/26 09:05:30;;;;;;;37.73;17.00;;;-1.20;99.90;;;;;;5022961;28;20262;-77
2023/01/26 09:07:56;;;;;;;37.37;16.60;;;-1.20;99.90;;;;;;5008078;28;20210;-77
2023/01/26 09:10:22;;;;;;;33.73;16.37;;;-1.20;99.90;;;;;;5009646;28;20188;-77
2023/01/26 09:12:47;;;;;;;29.37;14.20;;;-1.10;99.90;;;;;;5008368;28;20207;-78
2023/01/26 09:15:13;;;;;;;27.57;14.13;;;-1.10;60.80;;;;;;5005854;28;20258;-78
2023/01/26 09:17:41;;;;;;;33.77;14.73;;;-1.20;99.90;;;;;;5008295;28;20282;-77
2023/01/26 09:20:08;;;;;;;29.80;14.00;;;-1.10;30.60;;;;;;5006355;28;20179;-77
2023/01/26 09:22:34;;;;;;;37.47;17.40;;;-1.10;74.10;;;;;;5008100;28;20186;-78
2023/01/26 09:25:00;;;;;;;39.57;17.80;;;-1.10;40.00;;;;;;5007661;28;20195;-78
2023/01/26 09:27:26;;;;;;;35.37;17.40;;;-1.10;29.20;;;;;;5022783;28;20208;-76
2023/01/26 09:29:52;;;;;;;37.23;16.87;;;-1.10;1.00;;;;;;5006199;28;20194;-78
2023/01/26 09:32:18;;;;;;;37.53;17.70;;;-1.10;89.70;;;;;;5007678;28;20222;-77
2023/01/26 09:34:44;;;;;;;37.17;16.47;;;-1.00;7.00;;;;;;5006518;28;20203;-78
2023/01/26 09:37:09;;;;;;;37.50;16.23;;;-1.00;26.20;;;;;;5006332;28;20258;-77
2023/01/26 09:39:35;;;;;;;35.93;17.50;;;-1.00;11.70;;;;;;5006388;28;20187;-79
2023/01/26 09:42:34;;;;;;;39.87;17.80;;;-1.00;18.80;;;;;;5005247;28;20183;-78
2023/01/26 09:45:08;;;;;;;32.60;15.23;;;-1.00;66.50;;;;;;5006678;28;20204;-78
2023/01/26 09:48:31;;;;;;;32.23;14.90;;;-1.00;80.10;;;;;;5005260;28;20203;-78
2023/01/26 09:51:07;;;;;;;30.27;14.20;;;-1.00;13.20;;;;;;4999637;28;20749;-75
2023/01/26 09:56:18;;;;;;;29.87;14.80;;;-0.90;73.50;;;;;;5416560;23;20241;-76
2023/01/26 09:58:50;;;;;;;28.97;14.30;;;-0.80;8.50;;;;;;4994095;28;20232;-76
2023/01/26 10:01:28;;;;;;;30.37;15.17;;;-0.70;1.00;;;;;;4991779;28;20281;-76
2023/01/26 10:04:12;;;;;;;31.20;15.27;;;-0.80;1.00;;;;;;4995499;28;20668;-76
2023/01/26 10:06:38;;;;;;;30.20;14.43;;;-0.80;1.00;;;;;;4993804;28;20286;-76
2023/01/26 10:09:25;;;;;;;32.63;15.30;;;-0.80;1.00;;;;;;4995028;28;20615;-76
2023/01/26 10:11:57;;;;;;;30.63;15.10;;;-0.80;1.00;;;;;;4995898;28;20340;-75
2023/01/26 10:14:34;;;;;;;31.30;14.87;;;-0.80;1.00;;;;;;4994567;28;20212;-76
2023/01/26 10:17:02;;;;;;;32.80;14.90;;;-0.80;1.00;;;;;;4990289;28;20219;-76
2023/01/26 10:19:43;;;;;;;31.00;14.90;;;-0.80;1.00;;;;;;4990683;28;20188;-76
2023/01/26 10:22:30;;;;;;;27.33;13.40;;;-0.80;1.00;;;;;;4995050;28;20188;-76
2023/01/26 10:24:58;;;;;;;31.70;14.90;;;-0.80;6.50;;;;;;4995919;28;20218;-76
2023/01/26 10:27:24;;;;;;;28.30;13.07;;;-0.80;1.00;;;;;;4993456;28;20579;-76
2023/01/26 10:29:49;;;;;;;30.30;14.63;;;-0.70;50.10;;;;;;4992581;28;20272;-75
2023/01/26 10:32:18;;;;;;;29.93;15.30;;;-0.60;1.00;;;;;;4988231;28;20188;-76
2023/01/26 10:34:46;;;;;;;27.27;14.07;;;-0.70;1.00;;;;;;4986984;28;20756;-76
2023/01/26 10:37:26;;;;;;;31.43;14.43;;;-0.70;1.00;;;;;;4991091;28;20183;-76
2023/01/26 10:40:08;;;;;;;31.50;14.63;;;-0.70;1.00;;;;;;4995055;28;20241;-77
2023/01/26 10:42:35;;;;;;;30.57;14.13;;;-0.70;85.80;;;;;;4994064;28;20253;-76
2023/01/26 10:45:05;;;;;;;31.37;15.43;;;-0.80;90.00;;;;;;4985551;28;20215;-76
2023/01/26 10:47:31;;;;;;;35.77;15.50;;;-0.70;99.90;;;;;;4993281;28;20211;-76
2023/01/26 10:50:21;;;;;;;31.40;15.37;;;-0.70;99.90;;;;;;4991061;28;20187;-76
2023/01/26 10:53:01;;;;;;;30.70;13.90;;;-0.70;99.90;;;;;;4992404;28;20207;-76
2023/01/26 10:55:27;;;;;;;31.67;14.43;;;-0.60;99.90;;;;;;4994160;28;20200;-76
2023/01/26 10:57:53;;;;;;;29.90;14.47;;;-0.60;99.90;;;;;;4995080;28;20381;-76
2023/01/26 11:00:24;;;;;;;31.27;14.87;;;-0.50;99.90;;;;;;4995824;28;20183;-77
2023/01/26 11:02:53;;;;;;;31.70;14.93;;;-0.40;99.90;;;;;;4993010;28;20196;-77
2023/01/26 11:05:24;;;;;;;34.90;16.10;;;-0.40;99.90;;;;;;4992857;28;20289;-77
2023/01/26 11:07:59;;;;;;;30.10;16.27;;;-0.40;99.90;;;;;;4991604;28;20196;-77
2023/01/26 11:10:33;;;;;;;38.70;17.20;;;-0.30;99.90;;;;;;4993053;28;20288;-77
2023/01/26 11:13:18;;;;;;;33.53;16.27;;;-0.40;1.00;;;;;;4994076;28;20212;-77
2023/01/26 11:15:51;;;;;;;31.43;15.30;;;-0.40;1.00;;;;;;4993991;28;20203;-77
2023/01/26 11:18:28;;;;;;;34.00;16.40;;;-0.40;1.00;;;;;;5001128;28;20180;-77
2023/01/26 11:20:59;;;;;;;31.33;15.60;;;-0.30;1.00;;;;;;4994857;28;20309;-77
2023/01/26 11:23:54;;;;;;;31.10;15.37;;;-0.20;1.00;;;;;;4996189;28;20203;-77
2023/01/26 11:26:47;;;;;;;33.53;16.50;;;-0.20;1.00;;;;;;4997594;28;20298;-77
2023/01/26 11:29:40;;;;;;;34.73;17.33;;;-0.20;1.00;;;;;;4995312;28;20704;-77
2023/01/26 11:32:28;;;;;;;32.33;16.03;;;-0.10;1.00;;;;;;4997449;28;20678;-77
2023/01/26 11:35:22;;;;;;;32.30;15.40;;;-0.10;1.00;;;;;;5001634;28;20192;-76
2023/01/26 11:38:16;;;;;;;33.03;15.93;;;0.00;1.00;;;;;;4998214;28;20258;-76
2023/01/26 11:40:56;;;;;;;35.20;17.30;;;0.00;99.90;;;;;;5005190;28;20188;-77
2023/01/26 11:43:39;;;;;;;35.50;16.27;;;-0.10;99.90;;;;;;5002428;28;20199;-77
2023/01/26 11:46:29;;;;;;;35.20;18.10;;;0.00;99.90;;;;;;4998268;28;20199;-78
2023/01/26 11:49:24;;;;;;;36.20;17.37;;;0.00;99.90;;;;;;4999942;28;20180;-79
2023/01/26 11:52:00;;;;;;;33.37;15.57;;;0.00;99.90;;;;;;4998490;28;20195;-76
2023/01/26 11:54:40;;;;;;;29.00;15.03;;;0.00;99.90;;;;;;5020907;28;20934;-77
2023/01/26 11:57:40;;;;;;;33.47;16.90;;;0.00;99.90;;;;;;4999034;28;20314;-79
2023/01/26 12:00:22;;;;;;;33.10;15.73;;;0.10;99.90;;;;;;5018903;28;20179;-77
2023/01/26 12:03:01;;;;;;;42.80;20.17;;;0.00;99.90;;;;;;4995289;28;20594;-77
2023/01/26 12:05:39;;;;;;;37.17;17.67;;;0.00;99.90;;;;;;4997415;28;20207;-77
2023/01/26 12:08:43;;;;;;;35.53;16.60;;;0.00;99.90;;;;;;4996333;28;20223;-77
2023/01/26 12:11:21;;;;;;;34.13;16.40;;;0.00;99.90;;;;;;4981233;28;20230;-77
2023/01/26 12:13:56;;;;;;;33.83;17.00;;;0.00;99.90;;;;;;5004288;28;20699;-77
2023/01/26 12:16:55;;;;;;;35.43;16.77;;;0.00;99.90;;;;;;4997551;28;20571;-77
2023/01/26 12:19:26;;;;;;;40.87;19.57;;;0.00;99.90;;;;;;4994999;28;20184;-77
2023/01/26 12:21:56;;;;;;;33.47;15.53;;;0.10;99.90;;;;;;4995704;28;20556;-77
2023/01/26 12:24:39;;;;;;;39.53;17.37;;;0.10;99.90;;;;;;4993547;28;20695;-77
2023/01/26 12:27:13;;;;;;;40.13;18.67;;;0.10;99.90;;;;;;4993082;28;21101;-77
2023/01/26 12:30:02;;;;;;;37.80;17.93;;;0.20;99.90;;;;;;4994252;28;20191;-77
2023/01/26 12:32:28;;;;;;;36.13;17.27;;;0.20;99.90;;;;;;4995226;28;20207;-77
2023/01/26 12:34:54;;;;;;;38.77;17.90;;;0.20;99.90;;;;;;4996018;28;20188;-76
2023/01/26 12:37:32;;;;;;;36.70;17.87;;;0.10;99.90;;;;;;4993292;28;20705;-77
2023/01/26 12:40:32;;;;;;;52.87;26.37;;;0.10;99.90;;;;;;4996340;28;20203;-77
2023/01/26 12:43:43;;;;;;;40.17;19.57;;;0.10;99.90;;;;;;4994968;28;20191;-76
2023/01/26 12:46:10;;;;;;;52.53;23.83;;;0.10;99.90;;;;;;4984131;28;20212;-77
2023/01/26 12:48:54;;;;;;;44.93;19.50;;;0.20;1.00;;;;;;4998058;28;20187;-76
2023/01/26 12:51:35;;;;;;;47.30;20.57;;;0.20;1.00;;;;;;5003762;28;20215;-76
2023/01/26 12:54:19;;;;;;;44.90;21.33;;;0.20;1.00;;;;;;4994943;28;20688;-77
2023/01/26 12:56:55;;;;;;;48.33;21.70;;;0.30;99.90;;;;;;4995193;28;20294;-77
2023/01/26 12:59:30;;;;;;;47.50;20.63;;;0.30;99.90;;;;;;4997082;28;20183;-77
2023/01/26 13:01:56;;;;;;;44.47;20.77;;;0.30;99.90;;;;;;4997028;28;20241;-76
2023/01/26 13:04:21;;;;;;;46.70;22.37;;;0.30;99.90;;;;;;4996789;28;20192;-77
2023/01/26 13:07:20;;;;;;;46.40;21.83;;;0.20;99.90;;;;;;4997052;28;20761;-77
2023/01/26 13:10:16;;;;;;;48.50;21.80;;;0.30;99.90;;;;;;4994357;28;20200;-77
2023/01/26 13:13:19;;;;;;;47.87;22.93;;;0.30;99.90;;;;;;4995924;28;20611;-77
2023/01/26 13:15:45;;;;;;;49.97;22.83;;;0.20;99.90;;;;;;4995504;28;20210;-77
2023/01/26 13:18:16;;;;;;;52.00;22.13;;;0.20;99.90;;;;;;4993003;28;20188;-77
2023/01/26 13:20:47;;;;;;;47.87;21.47;;;0.20;99.90;;;;;;4996810;28;20588;-77
2023/01/26 13:23:40;;;;;;;53.63;22.17;;;0.20;99.90;;;;;;4987404;28;20185;-77
2023/01/26 13:26:16;;;;;;;48.73;22.17;;;0.20;99.90;;;;;;4992267;28;20219;-77
2023/01/26 13:28:42;;;;;;;59.63;25.10;;;0.20;99.90;;;;;;5017428;28;20188;-77
2023/01/26 13:31:10;;;;;;;63.57;27.50;;;0.10;99.90;;;;;;4995930;28;20189;-77
2023/01/26 13:33:36;;;;;;;55.47;24.90;;;0.20;1.00;;;;;;4995390;28;20219;-77
2023/01/26 13:36:09;;;;;;;57.80;24.43;;;0.20;1.00;;;;;;4996851;28;20203;-77
2023/01/26 13:38:42;;;;;;;58.07;25.50;;;0.30;1.00;;;;;;4995179;28;20804;-77